Time;durP1;ratioP1;P1;durP2;ratioP2;P2;SDS_P1;SDS_P2;PMS_P1;PMS_P2;Temp;Humidity;BMP_temperature;BMP_pressure;BME280_temperature;BME280_humidity;BME280_pressure;Samples;Min_cycle;Max_cycle;Signal;HPM_P1;HPM_P2
2023/06/19 00:00:16;;;;;;;14.95;9.18;;;;;;;22.58;51.45;100019.70;1751013;82;21038;-65
2023/06/19 00:02:49;;;;;;;13.80;9.75;;;;;;;22.57;51.63;100013.28;1751520;81;21145;-65
2023/06/19 00:05:18;;;;;;;13.15;9.25;;;;;;;22.56;51.80;100016.36;1751202;81;21566;-65
2023/06/19 00:07:47;;;;;;;14.65;9.48;;;;;;;22.53;51.89;100009.39;1751326;82;21061;-64
2023/06/19 00:10:16;;;;;;;13.28;9.53;;;;;;;22.52;52.03;100017.49;1751339;81;21043;-66
2023/06/19 00:12:44;;;;;;;12.43;9.43;;;;;;;22.50;52.18;100017.50;1751422;81;20982;-65
2023/06/19 00:15:14;;;;;;;14.98;9.73;;;;;;;22.50;52.46;100016.11;1751380;82;20999;-64
2023/06/19 00:17:44;;;;;;;12.18;9.18;;;;;;;22.42;52.55;100017.54;1751428;82;21035;-66
2023/06/19 00:20:14;;;;;;;12.80;9.53;;;;;;;22.37;52.66;100008.62;1746465;82;21144;-65
2023/06/19 00:22:42;;;;;;;16.25;9.80;;;;;;;22.35;52.92;100008.08;1717641;83;21080;-65
2023/06/19 00:25:11;;;;;;;12.23;9.43;;;;;;;22.32;53.19;100012.00;1717995;83;20991;-66
2023/06/19 00:27:40;;;;;;;13.05;9.20;;;;;;;22.30;53.19;100005.30;1717633;83;21046;-65
2023/06/19 00:30:10;;;;;;;15.28;9.85;;;;;;;22.30;53.20;100003.91;1717766;83;21071;-65
2023/06/19 00:32:46;;;;;;;13.03;9.60;;;;;;;22.30;53.09;100005.30;1717817;83;21003;-66
2023/06/19 00:35:09;;;;;;;11.90;9.03;;;;;;;22.29;53.17;100000.84;1717829;83;21019;-66
2023/06/19 00:37:39;;;;;;;13.20;9.95;;;;;;;22.27;53.30;100003.64;1717894;83;21031;-66
2023/06/19 00:40:10;;;;;;;13.22;9.60;;;;;;;22.26;53.34;100007.55;1717800;83;21052;-65
2023/06/19 00:42:39;;;;;;;11.35;9.03;;;;;;;22.26;53.58;99999.17;1717679;83;21031;-65
2023/06/19 00:45:08;;;;;;;11.78;9.65;;;;;;;22.22;53.80;99993.33;1717844;83;21015;-65
2023/06/19 00:47:38;;;;;;;13.45;9.78;;;;;;;22.20;54.08;99999.75;1717677;83;21466;-66
2023/06/19 00:50:10;;;;;;;14.78;9.45;;;;;;;22.19;54.19;99999.48;1717825;83;21931;-66
2023/06/19 00:52:39;;;;;;;11.65;9.30;;;;;;;22.17;54.24;100004.51;1717619;83;21676;-65
2023/06/19 00:55:09;;;;;;;12.70;9.60;;;;;;;22.13;54.40;100007.59;1693792;83;21505;-66
2023/06/19 00:57:39;;;;;;;12.47;9.18;;;;;;;22.07;54.63;100010.09;1717836;83;21031;-65
2023/06/19 01:00:12;;;;;;;11.83;9.68;;;;;;;22.05;54.76;100010.93;1717438;83;21638;-66
2023/06/19 01:02:41;;;;;;;13.53;9.83;;;;;;;22.04;54.83;100012.05;1717077;83;21510;-67
2023/06/19 01:05:11;;;;;;;12.23;9.50;;;;;;;22.02;54.84;100008.12;1717794;83;21059;-66
2023/06/19 01:07:48;;;;;;;13.43;9.48;;;;;;;22.02;54.87;100010.91;1717894;83;21015;-66
2023/06/19 01:10:22;;;;;;;12.58;9.75;;;;;;;22.02;55.27;100013.70;1717762;83;21371;-65
2023/06/19 01:13:02;;;;;;;15.25;10.15;;;;;;;22.02;54.99;100014.26;1694051;83;20988;-66
2023/06/19 01:15:31;;;;;;;13.78;9.83;;;;;;;22.02;55.12;100015.09;1717494;83;21074;-65
2023/06/19 01:18:00;;;;;;;13.80;9.63;;;;;;;22.01;55.63;100016.77;1717727;83;21000;-66
2023/06/19 01:20:31;;;;;;;16.05;9.85;;;;;;;21.99;55.44;100014.82;1717765;81;21447;-65
2023/06/19 01:23:11;;;;;;;11.53;9.25;;;;;;;21.99;55.54;100016.22;1717920;83;21042;-65
2023/06/19 01:25:40;;;;;;;13.75;10.13;;;;;;;22.00;55.49;100019.28;1717383;83;21440;-66
2023/06/19 01:28:11;;;;;;;12.68;9.55;;;;;;;22.01;55.83;100022.34;1717975;83;21521;-65
2023/06/19 01:30:42;;;;;;;12.40;9.55;;;;;;;22.01;56.06;100029.33;1717907;83;21062;-65
2023/06/19 01:33:19;;;;;;;11.95;9.55;;;;;;;21.97;55.88;100029.61;1693903;83;21086;-65
2023/06/19 01:35:49;;;;;;;13.08;9.85;;;;;;;21.98;55.93;100029.89;1717692;83;20991;-65
2023/06/19 01:38:21;;;;;;;14.35;10.18;;;;;;;22.01;55.86;100030.16;1717643;83;21568;-65
2023/06/19 01:40:49;;;;;;;12.13;9.93;;;;;;;22.02;55.74;100025.41;1717813;83;21030;-65
2023/06/19 01:43:18;;;;;;;12.80;10.10;;;;;;;22.03;55.74;100030.75;1717734;83;21007;-66
2023/06/19 01:45:47;;;;;;;15.03;9.80;;;;;;;22.02;56.19;100024.02;1718110;83;21051;-66
2023/06/19 01:48:17;;;;;;;13.15;10.60;;;;;;;22.02;56.10;100029.60;1717691;83;21035;-65
2023/06/19 01:50:49;;;;;;;15.30;9.68;;;;;;;22.05;55.95;100024.33;1717840;83;21494;-66
2023/06/19 01:53:18;;;;;;;16.75;10.55;;;;;;;22.04;56.17;100029.63;1717918;83;21035;-65
2023/06/19 01:55:48;;;;;;;19.98;10.08;;;;;;;22.02;55.98;100027.64;1717689;83;21070;-65
2023/06/19 01:58:18;;;;;;;12.45;10.00;;;;;;;22.02;56.23;100028.20;1717655;83;21027;-65
2023/06/19 02:00:48;;;;;;;13.28;9.70;;;;;;;22.04;56.22;100024.61;1694152;83;21047;-65
2023/06/19 02:03:17;;;;;;;15.60;10.65;;;;;;;22.07;56.14;100031.02;1717214;83;21054;-65
2023/06/19 02:05:46;;;;;;;15.58;10.13;;;;;;;22.08;56.14;100029.34;1717923;83;21034;-65
2023/06/19 02:08:15;;;;;;;13.03;9.65;;;;;;;22.08;56.17;100034.08;1717934;83;21438;-66
2023/06/19 02:10:44;;;;;;;12.33;10.00;;;;;;;22.10;56.14;100034.64;1717953;83;21034;-66
2023/06/19 02:13:13;;;;;;;14.55;10.38;;;;;;;22.11;55.87;100037.73;1717742;83;21062;-65
2023/06/19 02:15:45;;;;;;;11.68;9.48;;;;;;;22.11;55.56;100035.78;1717779;83;21043;-65
2023/06/19 02:18:14;;;;;;;16.37;9.75;;;;;;;22.14;55.13;100037.17;1717963;83;21054;-64
2023/06/19 02:20:43;;;;;;;12.25;9.78;;;;;;;22.16;55.00;100038.28;1718296;81;21540;-65
2023/06/19 02:23:12;;;;;;;14.47;9.80;;;;;;;22.19;54.83;100032.97;1720227;82;21050;-64
2023/06/19 02:25:40;;;;;;;11.95;9.88;;;;;;;22.23;54.40;100043.84;1725421;83;21523;-64
2023/06/19 02:28:10;;;;;;;12.40;10.18;;;;;;;22.27;54.27;100037.13;1725695;83;21414;-64
2023/06/19 02:30:40;;;;;;;12.55;9.75;;;;;;;22.32;54.71;100039.91;1725410;83;21499;-65
2023/06/19 02:33:10;;;;;;;15.05;10.32;;;;;;;22.36;54.58;100047.98;1725621;83;21031;-64
2023/06/19 02:35:41;;;;;;;12.10;9.25;;;;;;;22.37;54.44;100044.91;1720336;83;21550;-65
2023/06/19 02:38:12;;;;;;;11.08;9.18;;;;;;;22.38;54.59;100045.19;1720454;83;21426;-65
2023/06/19 02:40:41;;;;;;;13.18;9.15;;;;;;;22.38;54.35;100052.17;1720460;83;21039;-66
2023/06/19 02:43:11;;;;;;;12.43;9.53;;;;;;;22.34;54.25;100048.27;1686870;84;21501;-65
2023/06/19 02:45:40;;;;;;;14.87;9.88;;;;;;;22.33;54.21;100048.55;1693337;84;21077;-65
2023/06/19 02:48:09;;;;;;;13.22;9.43;;;;;;;22.32;54.31;100047.72;1664029;85;21018;-65
2023/06/19 02:50:41;;;;;;;12.50;8.88;;;;;;;22.34;54.16;100048.84;1720511;83;21070;-65
2023/06/19 02:53:11;;;;;;;13.13;9.40;;;;;;;22.33;54.00;100049.95;1725406;83;21007;-66
2023/06/19 02:55:39;;;;;;;11.38;9.15;;;;;;;22.34;53.85;100051.06;1725442;83;21137;-66
2023/06/19 02:58:10;;;;;;;14.93;9.53;;;;;;;22.36;53.66;100046.03;1720455;83;21451;-67
2023/06/19 03:00:41;;;;;;;13.03;9.10;;;;;;;22.39;53.45;100051.61;1720421;83;21019;-66
2023/06/19 03:03:11;;;;;;;12.93;9.48;;;;;;;22.44;53.41;100050.19;1725394;83;21078;-66
2023/06/19 03:05:42;;;;;;;17.17;9.88;;;;;;;22.48;53.03;100043.48;1725432;83;21077;-66
2023/06/19 03:08:11;;;;;;;14.68;9.45;;;;;;;22.53;52.59;100047.65;1725460;83;21018;-66
2023/06/19 03:10:40;;;;;;;15.23;9.25;;;;;;;22.57;52.42;100044.00;1725621;83;21042;-66
2023/06/19 03:13:09;;;;;;;14.00;8.73;;;;;;;22.58;52.25;100037.85;1725593;83;21054;-65
2023/06/19 03:15:38;;;;;;;15.43;9.90;;;;;;;22.60;52.21;100042.59;1720246;83;21086;-67
2023/06/19 03:18:09;;;;;;;14.40;8.95;;;;;;;22.61;52.19;100049.28;1725521;83;21082;-67
2023/06/19 03:20:39;;;;;;;20.95;9.50;;;;;;;22.61;52.39;100050.69;1725413;83;21438;-66
2023/06/19 03:23:08;;;;;;;12.68;8.55;;;;;;;22.61;52.55;100054.88;1718126;81;21055;-66
2023/06/19 03:25:42;;;;;;;13.03;9.50;;;;;;;22.63;52.50;100057.38;1717874;83;21071;-65
2023/06/19 03:28:09;;;;;;;15.98;9.13;;;;;;;22.64;52.53;100055.70;1717837;83;21050;-65
2023/06/19 03:30:39;;;;;;;12.55;8.88;;;;;;;22.65;52.62;100056.53;1717692;83;21058;-67
2023/06/19 03:33:09;;;;;;;18.00;8.90;;;;;;;22.67;52.51;100054.29;1717915;83;21023;-64
2023/06/19 03:35:41;;;;;;;10.95;8.50;;;;;;;22.69;52.47;100054.84;1717773;83;21031;-65
2023/06/19 03:38:15;;;;;;;13.65;9.28;;;;;;;22.70;52.40;100047.57;1717846;83;21039;-65
2023/06/19 03:40:44;;;;;;;13.50;9.00;;;;;;;22.73;52.54;100055.38;1717746;83;21505;-65
2023/06/19 03:43:13;;;;;;;12.78;8.98;;;;;;;22.75;52.31;100046.71;1717824;83;21059;-66
2023/06/19 03:45:44;;;;;;;13.48;8.80;;;;;;;22.78;52.26;100044.77;1717224;83;21096;-66
2023/06/19 03:48:12;;;;;;;11.35;8.90;;;;;;;22.81;52.32;100040.04;1717738;83;21516;-65
2023/06/19 03:50:42;;;;;;;14.68;9.03;;;;;;;22.83;52.40;100044.77;1717688;83;21074;-67
2023/06/19 03:53:10;;;;;;;13.72;9.60;;;;;;;22.85;52.26;100043.93;1717815;83;21427;-66
2023/06/19 03:55:39;;;;;;;14.03;9.15;;;;;;;22.89;52.34;100048.38;1717663;83;21019;-67
2023/06/19 03:58:14;;;;;;;13.93;9.25;;;;;;;22.94;52.24;100045.55;1717711;83;21034;-66
2023/06/19 04:00:44;;;;;;;15.03;9.55;;;;;;;22.99;52.33;100050.55;1717904;83;21050;-65
2023/06/19 04:03:14;;;;;;;12.85;9.10;;;;;;;23.03;52.27;100046.62;1717189;83;21019;-66
2023/06/19 04:05:44;;;;;;;12.95;8.80;;;;;;;23.07;52.34;100048.55;1717924;83;21086;-66
2023/06/19 04:08:13;;;;;;;13.88;8.83;;;;;;;23.11;52.22;100049.36;1717588;83;21094;-67
2023/06/19 04:10:44;;;;;;;11.73;8.85;;;;;;;23.14;52.16;100055.21;1717942;83;21063;-65
2023/06/19 04:13:13;;;;;;;18.50;10.00;;;;;;;23.18;52.11;100052.11;1717857;83;21078;-66
2023/06/19 04:15:44;;;;;;;18.77;9.85;;;;;;;23.22;52.02;100050.41;1717783;83;21476;-67
2023/06/19 04:18:12;;;;;;;14.83;9.55;;;;;;;23.27;52.01;100048.14;1717636;83;21167;-65
2023/06/19 04:20:42;;;;;;;16.17;9.50;;;;;;;23.30;51.87;100047.55;1717863;83;21031;-66
2023/06/19 04:23:12;;;;;;;15.05;10.10;;;;;;;23.35;51.94;100046.95;1717733;81;21066;-67
2023/06/19 04:25:41;;;;;;;16.17;9.43;;;;;;;23.39;51.78;100035.45;1717706;83;21074;-65
2023/06/19 04:28:10;;;;;;;16.73;9.15;;;;;;;23.46;51.80;100039.35;1717892;83;21078;-66
2023/06/19 04:30:39;;;;;;;16.70;9.95;;;;;;;23.49;51.73;100042.97;1717793;83;21059;-65
2023/06/19 04:33:08;;;;;;;22.98;10.88;;;;;;;23.54;51.78;100041.52;1717665;83;21023;-68
2023/06/19 04:35:39;;;;;;;14.38;9.88;;;;;;;23.59;51.62;100041.52;1717965;83;21027;-67
2023/06/19 04:38:10;;;;;;;16.00;9.70;;;;;;;23.64;51.56;100044.83;1717825;83;21007;-67
2023/06/19 04:40:39;;;;;;;14.25;9.33;;;;;;;23.71;51.46;100041.97;1717661;83;21110;-65
2023/06/19 04:43:08;;;;;;;14.35;9.70;;;;;;;23.79;51.20;100045.26;1718110;83;21018;-67
2023/06/19 04:45:38;;;;;;;15.90;9.73;;;;;;;23.83;51.06;100056.13;1717619;83;21520;-66
2023/06/19 04:48:07;;;;;;;12.80;9.03;;;;;;;23.84;50.97;100058.64;1717708;83;21022;-67
2023/06/19 04:50:37;;;;;;;17.90;10.60;;;;;;;23.88;51.12;100056.92;1717594;83;21027;-66
2023/06/19 04:53:05;;;;;;;13.25;9.38;;;;;;;23.94;50.97;100053.51;1717790;83;21066;-65
2023/06/19 04:55:34;;;;;;;15.30;10.08;;;;;;;23.99;50.54;100051.49;1717613;83;21062;-66
2023/06/19 04:58:02;;;;;;;23.57;10.03;;;;;;;24.03;50.42;100058.73;1717804;83;21019;-67
2023/06/19 05:00:32;;;;;;;12.93;8.98;;;;;;;24.10;50.25;100055.62;1717718;83;21098;-66
2023/06/19 05:03:01;;;;;;;11.85;8.93;;;;;;;24.18;50.16;100051.61;1717642;83;21023;-67
2023/06/19 05:05:30;;;;;;;19.48;10.08;;;;;;;24.27;49.84;100052.66;1717778;83;21043;-67
2023/06/19 05:08:02;;;;;;;16.60;9.55;;;;;;;24.33;49.63;100052.88;1717806;83;21059;-68
2023/06/19 05:10:30;;;;;;;18.73;9.48;;;;;;;24.43;49.47;100053.31;1717600;83;21471;-66
2023/06/19 05:13:00;;;;;;;11.25;9.38;;;;;;;24.58;49.18;100053.70;1717651;83;21031;-66
2023/06/19 05:15:29;;;;;;;15.68;10.03;;;;;;;24.67;48.82;100057.51;1717737;83;21102;-66
2023/06/19 05:17:58;;;;;;;17.02;9.68;;;;;;;24.81;48.41;100059.05;1717586;83;21468;-72
2023/06/19 05:20:26;;;;;;;21.17;9.95;;;;;;;24.96;48.18;100061.07;1717601;83;21474;-66
2023/06/19 05:22:56;;;;;;;20.05;11.50;;;;;;;25.14;47.62;100060.84;1717636;81;21007;-66
2023/06/19 05:25:25;;;;;;;16.90;9.75;;;;;;;25.27;47.54;100053.08;1693768;83;21050;-66
2023/06/19 05:27:54;;;;;;;13.62;9.58;;;;;;;25.38;47.33;100062.20;1717552;83;21471;-68
2023/06/19 05:30:43;;;;;;;16.82;9.90;;;;;;;25.50;46.94;100054.15;1717845;83;21084;-67
2023/06/19 05:33:15;;;;;;;23.02;10.43;;;;;;;25.62;46.49;100054.25;1716082;83;21025;-66
2023/06/19 05:35:43;;;;;;;24.52;10.63;;;;;;;25.74;46.25;100059.67;1711744;83;21018;-67
2023/06/19 05:38:14;;;;;;;16.93;10.95;;;;;;;25.88;46.12;100061.12;1711068;83;21129;-66
2023/06/19 05:40:43;;;;;;;17.65;10.48;;;;;;;26.01;46.23;100054.73;1711159;84;21044;-66
2023/06/19 05:43:11;;;;;;;15.45;10.15;;;;;;;26.18;45.70;100054.97;1710876;83;21526;-67
2023/06/19 05:45:41;;;;;;;15.05;10.38;;;;;;;26.45;45.09;100060.38;1710947;84;21040;-67
2023/06/19 05:48:10;;;;;;;13.60;10.05;;;;;;;26.70;44.39;100063.28;1711067;83;21172;-66
2023/06/19 05:50:40;;;;;;;16.35;10.40;;;;;;;26.91;43.92;100073.52;1710796;84;21478;-66
2023/06/19 05:53:09;;;;;;;18.17;10.80;;;;;;;27.10;43.46;100066.63;1711182;84;20997;-67
2023/06/19 05:55:38;;;;;;;14.28;10.78;;;;;;;27.25;42.91;100065.45;1595655;88;21076;-68
2023/06/19 05:58:07;;;;;;;13.40;10.25;;;;;;;27.37;42.66;100067.16;1595546;90;21116;-66
2023/06/19 06:00:36;;;;;;;16.48;10.63;;;;;;;27.46;42.56;100066.66;1595502;90;21099;-68
2023/06/19 06:03:05;;;;;;;18.75;10.35;;;;;;;27.80;42.22;100070.92;1595709;90;21111;-67
2023/06/19 06:05:36;;;;;;;14.07;10.08;;;;;;;27.80;42.22;100070.92;1595425;89;21527;-67
2023/06/19 06:08:06;;;;;;;22.30;12.13;;;;;;;28.03;41.98;100070.36;1595444;90;21599;-66
2023/06/19 06:10:36;;;;;;;22.70;12.10;;;;;;;28.25;41.49;100071.77;1595600;90;21598;-67
2023/06/19 06:13:04;;;;;;;20.35;11.05;;;;;;;28.42;40.98;100075.24;1595711;88;21107;-67
2023/06/19 06:15:34;;;;;;;13.88;10.28;;;;;;;28.56;40.81;100066.67;1595791;90;21099;-66
2023/06/19 06:18:03;;;;;;;16.20;11.00;;;;;;;28.74;40.58;100069.84;1595512;89;21111;-68
2023/06/19 06:20:33;;;;;;;15.15;11.03;;;;;;;28.90;40.33;100069.66;1667079;83;21100;-67
2023/06/19 06:23:01;;;;;;;15.90;10.65;;;;;;;29.04;40.27;100068.95;1711173;84;21024;-66
2023/06/19 06:25:30;;;;;;;21.15;11.40;;;;;;;29.27;40.11;100067.43;1711256;83;21032;-66
2023/06/19 06:28:00;;;;;;;20.00;10.98;;;;;;;29.45;39.63;100064.07;1710929;83;20993;-67
2023/06/19 06:30:29;;;;;;;17.55;11.18;;;;;;;29.50;39.62;100068.14;1683290;84;21464;-67
2023/06/19 06:32:59;;;;;;;18.50;11.10;;;;;;;29.67;39.62;100066.72;1717801;82;21123;-67
2023/06/19 06:35:28;;;;;;;14.98;11.18;;;;;;;29.85;39.00;100059.05;1719156;83;21060;-65
2023/06/19 06:37:57;;;;;;;18.02;10.25;;;;;;;29.90;39.10;100056.88;1719246;82;21131;-67
2023/06/19 06:40:27;;;;;;;16.75;10.98;;;;;;;30.09;38.84;100058.56;1718942;82;21044;-65
2023/06/19 06:42:56;;;;;;;17.62;11.18;;;;;;;30.22;38.70;100055.53;1719393;83;21084;-67
2023/06/19 06:45:25;;;;;;;15.70;11.03;;;;;;;30.38;38.58;100061.46;1719387;82;21051;-68
2023/06/19 06:47:56;;;;;;;19.32;11.03;;;;;;;30.56;38.37;100061.66;1719472;83;21064;-67
2023/06/19 06:50:25;;;;;;;16.57;11.18;;;;;;;30.65;37.90;100058.83;1714583;83;21099;-67
2023/06/19 06:52:55;;;;;;;17.48;10.80;;;;;;;30.53;37.78;100058.06;1719093;82;21052;-67
2023/06/19 06:55:25;;;;;;;14.45;11.22;;;;;;;30.37;38.19;100062.62;1719317;83;21004;-67
2023/06/19 06:57:54;;;;;;;15.88;10.95;;;;;;;30.33;38.57;100060.23;1719126;83;21056;-67
2023/06/19 07:00:23;;;;;;;15.25;10.90;;;;;;;30.29;38.39;100056.42;1719217;83;21068;-68
2023/06/19 07:02:52;;;;;;;14.50;10.20;;;;;;;30.31;38.44;100056.91;1719465;83;21029;-68
2023/06/19 07:05:22;;;;;;;19.32;11.20;;;;;;;30.42;38.31;100060.20;1719223;82;21491;-68
2023/06/19 07:07:52;;;;;;;20.48;11.73;;;;;;;30.52;38.31;100056.41;1719078;82;21088;-66
2023/06/19 07:10:21;;;;;;;16.48;11.12;;;;;;;30.62;38.27;100060.09;1719264;83;21088;-67
2023/06/19 07:12:51;;;;;;;57.23;14.98;;;;;;;30.70;38.31;100067.12;1719205;83;21064;-66
2023/06/19 07:15:20;;;;;;;15.75;11.03;;;;;;;30.91;37.60;100062.92;1719137;83;21028;-66
2023/06/19 07:17:49;;;;;;;14.53;10.75;;;;;;;31.01;37.34;100058.87;1719248;83;21463;-66
2023/06/19 07:20:18;;;;;;;16.02;10.68;;;;;;;31.12;37.34;100063.78;1719347;83;21083;-67
2023/06/19 07:22:48;;;;;;;17.90;13.10;;;;;;;31.25;36.94;100061.92;1719274;83;21095;-66
2023/06/19 07:25:17;;;;;;;17.48;11.12;;;;;;;31.34;36.73;100068.35;1714936;83;21044;-67
2023/06/19 07:27:46;;;;;;;16.87;10.88;;;;;;;31.47;36.52;100066.41;1719187;83;21101;-70
2023/06/19 07:30:15;;;;;;;17.92;10.82;;;;;;;31.64;36.10;100069.69;1719316;82;21056;-67
2023/06/19 07:32:45;;;;;;;25.95;11.33;;;;;;;31.74;35.98;100065.04;1733635;82;21064;-70
2023/06/19 07:35:15;;;;;;;14.68;10.15;;;;;;;31.93;35.49;100073.05;1742541;82;21115;-68
2023/06/19 07:37:45;;;;;;;16.10;10.30;;;;;;;32.08;34.56;100073.22;1742548;82;21024;-67
2023/06/19 07:40:15;;;;;;;17.48;9.85;;;;;;;32.19;33.53;100076.44;1742506;82;21064;-67
2023/06/19 07:42:45;;;;;;;13.60;9.75;;;;;;;32.19;33.47;100074.19;1742588;82;21064;-68
2023/06/19 07:45:13;;;;;;;13.18;10.03;;;;;;;32.17;33.22;100071.70;1742460;82;21028;-66
2023/06/19 07:47:46;;;;;;;13.35;9.93;;;;;;;32.10;33.49;100075.70;1742437;82;21020;-67
2023/06/19 07:50:15;;;;;;;17.42;9.50;;;;;;;32.05;33.28;100080.18;1742370;82;21072;-66
2023/06/19 07:52:44;;;;;;;13.08;9.68;;;;;;;31.98;33.17;100087.01;1742646;82;21468;-69
2023/06/19 07:55:14;;;;;;;14.95;9.73;;;;;;;32.06;33.05;100081.84;1742385;81;21036;-66
2023/06/19 07:57:43;;;;;;;12.85;10.23;;;;;;;32.23;32.62;100083.66;1742440;82;21033;-65
2023/06/19 08:00:16;;;;;;;16.23;9.35;;;;;;;32.40;31.95;100092.00;1742529;82;21060;-67
2023/06/19 08:02:45;;;;;;;12.60;9.73;;;;;;;32.38;32.06;100097.19;1742633;82;21069;-68
2023/06/19 08:05:14;;;;;;;14.35;10.28;;;;;;;32.39;31.90;100096.84;1731736;81;21070;-70
2023/06/19 08:07:44;;;;;;;14.85;9.33;;;;;;;32.37;31.46;100099.20;1728033;83;21069;-70
2023/06/19 08:10:13;;;;;;;16.40;9.35;;;;;;;32.31;30.49;100099.19;1695592;83;21086;-69
2023/06/19 08:12:44;;;;;;;12.37;8.90;;;;;;;32.00;30.60;100095.41;1725825;83;21513;-68
2023/06/19 08:15:14;;;;;;;11.28;8.70;;;;;;;31.77;30.97;100098.34;1728127;83;21089;-67
2023/06/19 08:17:44;;;;;;;14.65;9.50;;;;;;;31.73;31.02;100095.97;1731407;81;21486;-69
2023/06/19 08:20:13;;;;;;;13.10;8.10;;;;;;;31.82;30.97;100098.13;1732023;82;21512;-69
2023/06/19 08:22:44;;;;;;;13.40;9.00;;;;;;;31.89;30.28;100106.93;1740208;82;21099;-70
2023/06/19 08:25:13;;;;;;;10.28;8.43;;;;;;;31.85;30.03;100109.60;1739882;82;21290;-70
2023/06/19 08:27:45;;;;;;;12.73;8.55;;;;;;;31.90;30.26;100106.34;1698121;83;21112;-71
2023/06/19 08:30:13;;;;;;;14.13;7.95;;;;;;;32.08;29.56;100106.41;1720713;83;21106;-71
2023/06/19 08:32:46;;;;;;;14.33;9.53;;;;;;;32.27;29.25;100108.16;1721653;82;21102;-69
2023/06/19 08:35:17;;;;;;;12.65;8.50;;;;;;;32.37;29.24;100106.88;1723157;83;21066;-70
2023/06/19 08:37:46;;;;;;;11.28;8.05;;;;;;;32.36;29.00;100111.72;1723352;83;21102;-70
2023/06/19 08:40:15;;;;;;;11.95;8.60;;;;;;;32.13;28.82;100104.19;1723221;83;21506;-70
2023/06/19 08:42:46;;;;;;;13.80;8.73;;;;;;;31.97;29.11;100103.77;1723172;83;21571;-68
2023/06/19 08:45:15;;;;;;;11.63;8.33;;;;;;;31.83;29.71;100104.87;1693332;83;21173;-70
2023/06/19 08:47:46;;;;;;;14.95;9.40;;;;;;;31.92;29.96;100106.23;1692978;83;21066;-68
2023/06/19 08:50:16;;;;;;;13.10;8.78;;;;;;;32.10;29.88;100102.05;1693202;83;21078;-69
2023/06/19 08:52:45;;;;;;;12.90;9.08;;;;;;;32.22;29.65;100102.67;1703841;83;21624;-70
2023/06/19 08:55:15;;;;;;;13.45;8.68;;;;;;;32.12;30.12;100105.36;1724593;83;21044;-70
2023/06/19 08:57:45;;;;;;;12.40;9.38;;;;;;;32.17;30.42;100097.23;1704130;83;21107;-69
2023/06/19 09:00:26;;;;;;;13.35;9.15;;;;;;;32.34;30.50;100101.32;1704043;83;21111;-73
2023/06/19 09:03:02;;;;;;;14.80;9.90;;;;;;;32.48;30.11;100098.98;1727560;83;21097;-72
2023/06/19 09:05:33;;;;;;;12.43;9.03;;;;;;;32.51;30.08;100106.55;1703462;83;21032;-71
2023/06/19 09:08:02;;;;;;;12.98;8.80;;;;;;;32.43;30.16;100104.88;1724353;83;21098;-72
2023/06/19 09:10:34;;;;;;;17.25;10.10;;;;;;;32.39;30.29;100108.77;1704584;83;21146;-72
2023/06/19 09:13:04;;;;;;;12.50;9.03;;;;;;;32.32;30.29;100099.42;1724555;83;21024;-72
2023/06/19 09:15:36;;;;;;;14.40;9.20;;;;;;;32.14;30.62;100093.67;1724520;83;21036;-69
2023/06/19 09:18:11;;;;;;;12.28;9.20;;;;;;;32.07;31.06;100097.08;1703864;83;21076;-72
2023/06/19 09:20:44;;;;;;;15.55;9.55;;;;;;;32.02;31.08;100092.22;1724440;83;21055;-73
2023/06/19 09:23:14;;;;;;;16.57;10.38;;;;;;;31.96;31.23;100095.03;1724463;83;21023;-71
2023/06/19 09:25:57;;;;;;;16.82;10.32;;;;;;;31.96;31.63;100092.20;1723952;81;21042;-70
2023/06/19 09:28:29;;;;;;;12.98;9.45;;;;;;;31.89;31.25;100092.77;1722984;83;21066;-71
2023/06/19 09:31:02;;;;;;;13.75;9.53;;;;;;;31.82;31.17;100098.95;1723054;83;21031;-70
2023/06/19 09:33:33;;;;;;;12.47;8.93;;;;;;;31.76;31.17;100091.85;1721272;83;21996;-70
2023/06/19 09:36:04;;;;;;;13.48;9.60;;;;;;;31.58;31.26;100084.64;1720633;83;21078;-69
2023/06/19 09:38:40;;;;;;;14.53;9.43;;;;;;;31.48;31.48;100086.48;1720773;83;21078;-70
2023/06/19 09:41:13;;;;;;;13.58;9.60;;;;;;;31.43;31.38;100083.86;1720755;82;21027;-69
2023/06/19 09:43:47;;;;;;;12.40;9.10;;;;;;;31.34;31.80;100087.34;1720492;82;21011;-69
2023/06/19 09:46:18;;;;;;;16.85;9.38;;;;;;;31.31;31.43;100082.37;1720645;83;21027;-68
2023/06/19 09:48:48;;;;;;;15.03;9.30;;;;;;;31.19;31.82;100076.84;1720534;83;21086;-69
2023/06/19 09:51:23;;;;;;;12.82;9.05;;;;;;;31.20;32.26;100077.67;1720780;83;21031;-69
2023/06/19 09:53:54;;;;;;;13.08;8.73;;;;;;;31.30;31.48;100073.05;1720743;83;21055;-70
2023/06/19 09:56:24;;;;;;;12.00;8.68;;;;;;;31.31;31.24;100066.80;1698277;83;21198;-69
2023/06/19 09:58:55;;;;;;;11.97;9.25;;;;;;;31.29;30.65;100070.55;1720653;83;21062;-69
2023/06/19 10:01:30;;;;;;;11.88;8.20;;;;;;;31.25;30.82;100069.00;1720686;82;21579;-70
2023/06/19 10:04:08;;;;;;;12.85;8.33;;;;;;;31.28;30.34;100063.23;1720754;83;21078;-70
2023/06/19 10:06:46;;;;;;;15.13;8.70;;;;;;;31.26;29.77;100070.66;1720365;83;21458;-71
2023/06/19 10:09:18;;;;;;;9.93;8.18;;;;;;;31.26;30.20;100065.59;1720627;83;21015;-70
2023/06/19 10:11:52;;;;;;;11.68;8.33;;;;;;;31.24;29.47;100070.77;1720692;83;21409;-68
2023/06/19 10:14:24;;;;;;;10.18;7.65;;;;;;;31.13;29.52;100068.27;1720841;83;21055;-69
2023/06/19 10:16:55;;;;;;;12.23;8.90;;;;;;;31.09;29.83;100060.22;1720559;83;21003;-71
2023/06/19 10:19:24;;;;;;;14.70;8.63;;;;;;;31.14;30.14;100060.02;1720969;83;21090;-68
2023/06/19 10:21:55;;;;;;;9.05;8.03;;;;;;;31.15;30.04;100053.81;1712756;83;21063;-71
2023/06/19 10:24:26;;;;;;;13.55;8.53;;;;;;;31.10;29.36;100059.05;1720761;83;21046;-69
2023/06/19 10:27:00;;;;;;;12.65;8.05;;;;;;;31.03;29.85;100058.77;1740941;82;21031;-70
2023/06/19 10:29:40;;;;;;;10.90;8.60;;;;;;;31.02;30.02;100052.87;1742196;82;21068;-70
2023/06/19 10:32:11;;;;;;;15.32;8.50;;;;;;;31.01;29.91;100059.70;1738484;82;21044;-69
2023/06/19 10:34:47;;;;;;;9.75;8.10;;;;;;;30.96;30.04;100053.41;1734301;82;21075;-69
2023/06/19 10:37:16;;;;;;;11.53;8.33;;;;;;;30.91;30.23;100053.02;1734349;83;21083;-70
2023/06/19 10:39:46;;;;;;;13.98;9.30;;;;;;;30.96;30.39;100049.99;1734307;81;21677;-70
2023/06/19 10:42:18;;;;;;;11.55;8.23;;;;;;;31.02;30.01;100052.87;1734630;83;21102;-71
2023/06/19 10:44:47;;;;;;;14.15;9.80;;;;;;;31.02;29.86;100042.96;1734481;83;21467;-70
2023/06/19 10:47:17;;;;;;;13.55;9.48;;;;;;;30.99;29.74;100041.41;1734396;83;21520;-71
2023/06/19 10:49:47;;;;;;;15.10;10.05;;;;;;;30.89;29.58;100042.62;1734298;83;21102;-70
2023/06/19 10:52:19;;;;;;;14.73;8.73;;;;;;;30.76;29.98;100036.64;1696766;84;21095;-71
2023/06/19 10:54:54;;;;;;;15.40;9.05;;;;;;;30.70;30.33;100040.83;1734591;81;21099;-71
2023/06/19 10:57:32;;;;;;;15.15;9.48;;;;;;;30.63;30.33;100034.30;1734112;81;21039;-71
2023/06/19 11:00:10;;;;;;;21.82;15.50;;;;;;;30.68;30.37;100029.03;1734390;83;21130;-71
2023/06/19 11:02:34;;;;;;;12.80;9.65;;;;;;;30.73;30.00;100028.25;1733525;81;21036;-72
2023/06/19 11:05:03;;;;;;;13.28;8.98;;;;;;;30.78;29.89;100027.22;1734319;81;21083;-73
2023/06/19 11:07:32;;;;;;;15.83;9.30;;;;;;;30.80;29.88;100028.54;1734371;83;21027;-70
2023/06/19 11:10:03;;;;;;;13.10;9.35;;;;;;;30.84;29.60;100020.20;1734733;83;21047;-71
2023/06/19 11:12:34;;;;;;;11.97;9.20;;;;;;;30.84;29.97;100024.44;1734436;81;21421;-73
2023/06/19 11:15:06;;;;;;;14.47;8.38;;;;;;;30.86;29.79;100029.17;1734372;81;21074;-72
2023/06/19 11:17:36;;;;;;;11.35;8.43;;;;;;;30.89;29.23;100031.31;1734135;83;21055;-72
2023/06/19 11:20:14;;;;;;;13.38;9.00;;;;;;;30.86;29.19;100028.59;1705844;83;21541;-70
2023/06/19 11:22:42;;;;;;;10.80;8.70;;;;;;;30.82;29.13;100023.95;1734312;83;21498;-72
2023/06/19 11:25:11;;;;;;;13.10;7.95;;;;;;;30.86;28.92;100026.34;1733073;83;21036;-72
2023/06/19 11:27:41;;;;;;;13.18;8.68;;;;;;;30.91;28.86;100020.48;1728312;83;21014;-72